Rahoon, Ireland

6:33 AM IST on July 24, 2017 (GMT +0100)
Rahoon | | Change Station

Elev 105 ft 53.27 °N, 9.09 °W | Updated 17 days ago

Shallow Fog
Shallow Fog
58.9 °F
Feels Like 58.9 °F
N
3.0
Wind Variable Wind from SW
Gusts 8.0 mph

Today
High -- | Low -- °F
--% Chance of Precip.
Yesterday
High -- | Low -- °F
Precip. -- in
Pressure 30.12 in
Visibility 2.5 miles
Clouds Few 500 ft
Scattered Clouds 20000 ft
Dew Point 57.8 °F
Humidity 96%
Rainfall in
Snow Depth Not available.
5:40 AM 9:44 PM
New Moon, 1% visible
METAR EINN 240500Z 00000KT 4000 R24/0375N R06/P2000 MIFG FEW005 SCT200 12/11 Q1020 TEMPO 2000
Pressure 30.12 in
Visibility 2.5 miles
Clouds Few 500 ft
Scattered Clouds 20000 ft
Dew Point 57.8 °F
Humidity 96%
Rainfall in
Snow Depth Not available.
5:40 AM 9:44 PM
New Moon, 1% visible
METAR EINN 240500Z 00000KT 4000 R24/0375N R06/P2000 MIFG FEW005 SCT200 12/11 Q1020 TEMPO 2000

Get Severe Weather Alerts

Thanks for signing up!

Be on the lookout for a verification email in your inbox.

You'll start receiving the daily forecast at 6 AM.

×

10-Day Weather Forecast

×

Almanac

Astronomy

Jul. 24, 2017 Rise Set
Actual Time
Civil Twilight
Nautical Twilight
Astronomical Twilight
Moon
Length of Visible Light
Length of Day
Tomorrow will be .
, % of the Moon is Illuminated

Today's Extremes

Country Highs Country Lows

Community

WunderPhotos

Category 6

Welcome to Category 6. This is the collective home for Weather Underground's featured writeups by Dr. Jeff Masters (right), Bob Henson (left), Chris Burt, and other regular contributors.

Nearby

Air Quality

  Air Quality AQ Index Pollutant
Not available.

Snow Depth

Station Depth Elevation

Earthquake Activity

City Distance Mag. Time & Date
Minimum magnitude displayed is 2.5.

Coastal Water Temperatures

Place Temperature

Stations

Nearby Weather Stations

Station Location Temp. Windchill Dew Point Humidity Wind Precip. Elev Updated Type